• Join FlightAware (Why Join?)
  • Login
  • US Flag 
04:37PM EDT


 

Airport Tracker/Info


-or-


 

Live Flight TrackerFlight Track Log ✈ DAL1037 ✈ 31-Aug-2013 ✈ KGEG - KSLC

Flight Track Log - Related Links

Times and Time Zones

All times are in EDT time to prevent confusion due to time zone crossing. See the DAL1037 flight status page for this flight to view local times or setup timezone preferences in your user account.

Time Position Orientation Groundspeed Altitude Reporting Facility
EDT Latitude Longitude Course Direction KTS MPH feet Rate Location/Type
04:16PM 47.6461 -117.4992 162° South 168 193 3,700  Level Seattle Center
04:17PM 47.6439 -117.4214 92° East 235 270 4,900 2,040 Climbing Seattle Center
04:18PM 47.5725 -117.3928 165° South 272 313 7,900 2,940 Climbing Seattle Center
04:19PM 47.1595 -117.3005 165° South  Level FlightAware Approximate
04:19PM 47.4811 -117.3511 163° South 289 333 10,900  Level Seattle Center
04:20PM 47.0425 -117.2552 162° South  Level FlightAware Approximate
04:20PM 47.3914 -117.3100 163° South 344 396 12,500  Level Seattle Center
04:21PM 46.9274 -117.2005 162° South  Level FlightAware Approximate
04:21PM 47.2911 -117.2667 164° South 367 422 14,500  Level Seattle Center
04:22PM 47.1878 -117.2217 164° South 400 460 16,400 2,160 Climbing Seattle Center
04:23PM 47.0822 -117.1753 163° South 400 460 18,900 1,980 Climbing Seattle Center
04:24PM 46.9742 -117.1281 163° South 404 465 20,500 1,560 Climbing Seattle Center
04:25PM 46.8625 -117.0806 164° South 416 479 22,200 1,680 Climbing Seattle Center
04:26PM 46.7486 -117.0303 163° South 427 491 24,000 1,500 Climbing Seattle Center
04:27PM 46.6322 -116.9808 164° South 434 499 25,300 1,320 Climbing Seattle Center
04:28PM 46.4914 -116.9189 163° South 440 506 26,700 1,260 Climbing Seattle Center
04:29PM 46.3697 -116.8692 164° South 451 519 27,900 1,080 Climbing Seattle Center
04:30PM 46.2461 -116.8175 164° South 459 528 29,000 1,080 Climbing Seattle Center
04:31PM 46.1214 -116.7650 164° South 466 536 30,100 1,080 Climbing Seattle Center
04:32PM 45.9958 -116.7100 163° South 471 542 31,300 1,440 Climbing Seattle Center
04:33PM 45.8731 -116.6608 164° South 464 534 33,100 1,500 Climbing Seattle Center
04:34PM 45.7553 -116.6108 163° South 445 512 34,400 1,140 Climbing Seattle Center
04:35PM 45.6378 -116.5619 164° South 442 509 35,500 1,080 Climbing Seattle Center
04:36PM 45.5253 -116.5033 160° South 434 499 36,700 720 Climbing Seattle Center
04:37PM 45.4269 -116.4047 145° Southeast 434 499 37,000 120 Climbing Seattle Center
04:38PM 45.3231 -116.3081 147° Southeast 444 511 37,000  Level Seattle Center
04:40PM 45.1939 -116.1867 146° Southeast 463 533 37,000  Level Seattle Center
04:41PM 45.0858 -116.0847 146° Southeast 467 537 37,000 -60 Level Seattle Center
04:42PM 44.9775 -115.9839 147° Southeast 468 539 36,900 -60 Descending Seattle Center
04:43PM 44.8683 -115.8839 147° Southeast 468 539 36,900  Level Seattle Center
04:44PM 44.7592 -115.7833 147° Southeast 471 542 37,000  Climbing Seattle Center
04:45PM 44.6503 -115.6850 147° Southeast 468 539 37,000  Level Seattle Center
04:46PM 44.5350 -115.5797 147° Southeast 466 536 37,000  Level Seattle Center
04:47PM 44.4317 -115.4861 147° Southeast 471 542 37,000  Level Seattle Center
04:48PM 44.2864 -115.3511 146° Southeast 466 536 37,000  Level Salt Lake Center
04:49PM 44.1728 -115.2494 147° Southeast 466 536 37,000  Level Salt Lake Center
04:50PM 44.0589 -115.1472 147° Southeast 467 537 37,000  Level Salt Lake Center
04:51PM 43.9547 -115.0539 147° Southeast 463 533 37,000  Level Salt Lake Center
04:52PM 43.8406 -114.9531 147° Southeast 466 536 37,000  Level Salt Lake Center
04:53PM 43.7258 -114.8517 147° Southeast 465 535 37,000  Level Salt Lake Center
04:54PM 43.6200 -114.7589 148° Southeast 467 537 37,000  Level Salt Lake Center
04:55PM 43.5044 -114.6564 147° Southeast 471 542 37,000  Level Salt Lake Center
04:56PM 43.3942 -114.5461 144° Southeast 471 542 37,000  Level Salt Lake Center
04:57PM 43.2819 -114.4347 144° Southeast 475 547 37,000  Level Salt Lake Center
04:58PM 43.1789 -114.3339 144° Southeast 473 544 37,000  Level Salt Lake Center
04:59PM 43.0694 -114.2258 144° Southeast 473 544 37,000  Level Salt Lake Center
05:00PM 42.9628 -114.1217 144° Southeast 471 542 37,000  Level Salt Lake Center
05:01PM 42.8556 -114.0169 144° Southeast 475 547 37,000  Level Salt Lake Center
05:02PM 42.7478 -113.9128 145° Southeast 476 548 37,000 -600 Level Salt Lake Center
05:03PM 42.6411 -113.8081 144° Southeast 475 547 35,800 -1,620 Descending Salt Lake Center
05:04PM 42.5361 -113.7078 145° Southeast 467 537 33,800 -2,160 Descending Salt Lake Center
05:05PM 42.4100 -113.5878 145° Southeast 462 532 31,400 -2,160 Descending Salt Lake Center
05:06PM 42.3139 -113.4967 145° Southeast 464 534 29,400 -1,200 Descending Salt Lake Center
05:07PM 42.2047 -113.3717 140° Southeast 472 543 29,000 -240 Descending Salt Lake Center
05:08PM 42.1142 -113.2469 134° Southeast 469 540 29,000 -360 Level Salt Lake Center
05:09PM 42.0239 -113.1275 135° Southeast 459 528 28,300 -840 Descending Salt Lake Center
05:10PM 41.9344 -113.0111 136° Southeast 452 520 27,300 -1,500 Descending Salt Lake Center
05:11PM 41.8461 -112.8958 136° Southeast 446 513 25,300 -2,100 Descending Salt Lake Center
05:12PM 41.7597 -112.7864 137° Southeast 433 498 23,000 -2,460 Descending Salt Lake Center
05:13PM 41.6628 -112.6586 135° Southeast 414 476 20,300 -2,460 Descending Salt Lake Center
05:14PM 41.5839 -112.5586 137° Southeast 394 453 18,000 -1,800 Descending Salt Lake Center
05:16PM 41.5056 -112.4575 136° Southeast 381 438 16,700 -1,320 Descending Salt Lake Center
05:17PM 41.4161 -112.3967 153° Southeast 374 430 15,400 -1,260 Descending Salt Lake Center
05:17PM 41.3333 -112.3325 150° Southeast 362 417 14,300 -1,200 Descending Salt Lake Center
05:19PM 41.2392 -112.2675 153° Southeast 356 410 13,100 -900 Descending Salt Lake Center
05:20PM 41.1542 -112.2050 151° Southeast 347 399 12,500 -600 Descending Salt Lake Center
05:20PM 41.0786 -112.1483 151° Southeast 344 396 12,000 -600 Descending Salt Lake Center
05:22PM 40.9650 -112.1225 170° South 343 395 11,300 -540 Descending Salt Lake Center
05:23PM 40.8778 -112.1061 172° South 315 362 10,900 -240 Descending Salt Lake Center
05:24PM 40.8022 -112.0997 176° South 260 299 10,900 -840 Level Salt Lake Center
05:25PM 40.7364 -112.0939 176° South 249 287 9,300 -1,020 Descending Salt Lake Center
05:26PM 40.6742 -112.0828 172° South 217 250 8,800 -1,200 Descending Salt Lake Center
05:27PM 40.6417 -112.0381 134° Southeast 200 230 6,800 -1,560 Descending Salt Lake Center
05:28PM 40.6797 -112.0025 35° Northeast 184 212 5,900 -900 Descending Salt Lake Center
05:29PM 40.7303 -111.9900 11° North 150 173 5,000 -780 Descending Salt Lake Center
05:30PM 40.7697 -111.9947 355° North 142 163 4,300 -720 Descending Salt Lake Center